Time;durP1;ratioP1;P1;durP2;ratioP2;P2;SDS_P1;SDS_P2;PMS_P1;PMS_P2;Temp;Humidity;BMP_temperature;BMP_pressure;BME280_temperature;BME280_humidity;BME280_pressure;Samples;Min_cycle;Max_cycle;Signal;HPM_P1;HPM_P2
2022/01/01 00:02:05;;;;;;;;;;;;;;;5.64;93.75;97499.00;5054973;28;20337;-75
2022/01/01 00:04:31;;;;;;;;;;;;;;;5.64;93.91;97509.44;5037209;28;20402;-75
2022/01/01 00:06:57;;;;;;;;;;;;;;;5.65;94.23;97506.66;5073988;28;20296;-75
2022/01/01 00:09:23;;;;;;;;;;;;;;;5.64;94.19;97507.63;5060046;28;19966;-75
2022/01/01 00:11:49;;;;;;;;;;;;;;;5.65;94.19;97501.47;5047041;28;20042;-75
2022/01/01 00:14:15;;;;;;;;;;;;;;;5.63;93.69;97505.22;5037489;28;19980;-75
2022/01/01 00:16:41;;;;;;;;;;;;;;;5.60;93.44;97511.53;5059242;28;19970;-75
2022/01/01 00:19:07;;;;;;;;;;;;;;;5.56;93.11;97502.41;5044542;28;19981;-75
2022/01/01 00:21:33;;;;;;;;;;;;;;;5.55;93.15;97515.59;5054305;28;20313;-75
2022/01/01 00:23:58;;;;;;;;;;;;;;;5.53;93.26;97513.16;5056559;28;19958;-75
2022/01/01 00:26:24;;;;;;;;;;;;;;;5.52;93.35;97511.50;5025453;28;20075;-75
2022/01/01 00:28:50;;;;;;;;;;;;;;;5.52;93.50;97510.69;5042726;28;19986;-76
2022/01/01 00:31:16;;;;;;;;;;;;;;;5.53;93.25;97512.34;5041565;28;19961;-75
2022/01/01 00:33:42;;;;;;;;;;;;;;;5.51;92.85;97517.69;5044072;28;19967;-75
2022/01/01 00:36:08;;;;;;;;;;;;;;;5.49;92.77;97517.84;5022668;28;19987;-74
2022/01/01 00:38:34;;;;;;;;;;;;;;;5.48;92.82;97515.41;5057619;28;19960;-75
2022/01/01 00:41:00;;;;;;;;;;;;;;;5.46;92.55;97512.97;5060884;28;19955;-75
2022/01/01 00:43:26;;;;;;;;;;;;;;;5.45;92.69;97510.53;5030347;28;20456;-74
2022/01/01 00:45:52;;;;;;;;;;;;;;;5.43;92.60;97520.28;5062333;28;19996;-75
2022/01/01 00:48:18;;;;;;;;;;;;;;;5.40;92.54;97521.41;5057846;28;19962;-75
2022/01/01 00:50:44;;;;;;;;;;;;;;;5.36;92.48;97517.50;5061917;28;20071;-79
2022/01/01 00:53:10;;;;;;;;;;;;;;;5.33;92.38;97520.41;5065166;28;20437;-74
2022/01/01 00:55:36;;;;;;;;;;;;;;;5.29;92.42;97530.31;5035322;28;20321;-74
2022/01/01 00:58:02;;;;;;;;;;;;;;;5.27;92.45;97528.84;5044337;28;19960;-75
2022/01/01 01:00:27;;;;;;;;;;;;;;;5.24;92.70;97540.38;5049198;28;19961;-74
2022/01/01 01:02:53;;;;;;;;;;;;;;;5.22;92.67;97539.72;5031177;28;19957;-74
2022/01/01 01:05:19;;;;;;;;;;;;;;;5.20;92.86;97539.06;5049957;28;19951;-74
2022/01/01 01:07:45;;;;;;;;;;;;;;;5.20;92.77;97538.25;5048024;28;20050;-74
2022/01/01 01:10:12;;;;;;;;;;;;;;;5.19;92.53;97547.03;5054098;28;20050;-75
2022/01/01 01:12:43;;;;;;;;;;;;;;;5.18;92.63;97535.78;5049204;28;19959;-75
2022/01/01 01:15:11;;;;;;;;;;;;;;;5.18;92.45;97540.19;5061096;28;20301;-75
2022/01/01 01:17:37;;;;;;;;;;;;;;;5.14;92.38;97539.69;5051751;28;20468;-75
2022/01/01 01:20:04;;;;;;;;;;;;;;;5.15;92.67;97550.91;5046583;28;19957;-75
2022/01/01 01:22:30;;;;;;;;;;;;;;;5.14;92.69;97542.28;5040985;28;19970;-75
2022/01/01 01:24:56;;;;;;;;;;;;;;;5.12;92.87;97540.81;5060238;28;19951;-75
2022/01/01 01:27:23;;;;;;;;;;;;;;;5.13;93.01;97547.66;5055234;28;20396;-75
2022/01/01 01:29:49;;;;;;;;;;;;;;;5.12;93.10;97541.63;5056343;28;19953;-75
2022/01/01 01:32:15;;;;;;;;;;;;;;;5.14;92.96;97544.06;5048812;28;19950;-75
2022/01/01 01:34:41;;;;;;;;;;;;;;;5.13;93.05;97545.06;5071051;28;19987;-75
2022/01/01 01:37:07;;;;;;;;;;;;;;;5.11;92.85;97542.59;5045414;28;20452;-75
2022/01/01 01:39:33;;;;;;;;;;;;;;;5.08;92.29;97540.28;5049356;28;19965;-75
2022/01/01 01:41:59;;;;;;;;;;;;;;;5.06;91.98;97537.03;5051470;28;20066;-74
2022/01/01 01:44:33;;;;;;;;;;;;;;;5.02;91.99;97543.56;5050079;28;20414;-75
2022/01/01 01:47:01;;;;;;;;;;;;;;;4.97;92.04;97540.59;5044193;28;20356;-75
2022/01/01 01:49:28;;;;;;;;;;;;;;;4.94;92.26;97546.91;5056111;28;19987;-75
2022/01/01 01:51:54;;;;;;;;;;;;;;;4.92;93.01;97540.25;5046839;28;19960;-74
2022/01/01 01:54:20;;;;;;;;;;;;;;;4.92;93.31;97537.66;5055310;28;19967;-74
2022/01/01 01:56:46;;;;;;;;;;;;;;;4.92;93.84;97535.84;5058468;28;20446;-75
2022/01/01 01:59:13;;;;;;;;;;;;;;;4.94;94.25;97540.91;5061249;28;20409;-74
2022/01/01 02:01:39;;;;;;;;;;;;;;;4.96;94.56;97546.75;5054612;28;19958;-74
2022/01/01 02:04:05;;;;;;;;;;;;;;;4.98;94.70;97550.03;5024143;28;19963;-75
2022/01/01 02:06:32;;;;;;;;;;;;;;;4.98;95.24;97556.03;5046234;28;20523;-74
2022/01/01 02:08:58;;;;;;;;;;;;;;;5.01;95.64;97552.31;5063635;28;19954;-75
2022/01/01 02:11:24;;;;;;;;;;;;;;;5.02;95.85;97561.75;5045860;28;19988;-75
2022/01/01 02:14:03;;;;;;;;;;;;;;;5.02;95.78;97559.16;5062961;28;20020;-74
2022/01/01 02:16:55;;;;;;;;;;;;;;;5.02;96.07;97570.34;5057235;28;20324;-75
2022/01/01 02:19:25;;;;;;;;;;;;;;;5.01;96.12;97560.91;5059616;28;19985;-75
2022/01/01 02:21:52;;;;;;;;;;;;;;;4.99;96.24;97564.63;5058128;28;19954;-75
2022/01/01 02:24:19;;;;;;;;;;;;;;;4.98;95.98;97561.22;5061647;28;20425;-75
2022/01/01 02:26:44;;;;;;;;;;;;;;;4.98;96.15;97563.84;5065397;28;19954;-75
2022/01/01 02:29:10;;;;;;;;;;;;;;;4.99;96.17;97559.44;5052075;28;20021;-74
2022/01/01 02:31:36;;;;;;;;;;;;;;;5.00;96.34;97556.69;5037328;28;19959;-75
2022/01/01 02:34:03;;;;;;;;;;;;;;;5.04;96.99;97559.78;5055738;28;19945;-75
2022/01/01 02:36:30;;;;;;;;;;;;;;;5.05;97.43;97549.22;5055500;28;20446;-74
2022/01/01 02:38:56;;;;;;;;;;;;;;;5.08;97.58;97559.34;5058544;28;19952;-74
2022/01/01 02:41:22;;;;;;;;;;;;;;;5.12;97.55;97554.63;5051947;28;19970;-75
2022/01/01 02:43:48;;;;;;;;;;;;;;;5.13;97.78;97552.84;5053012;28;20093;-75
2022/01/01 02:46:14;;;;;;;;;;;;;;;5.16;97.73;97555.13;5059411;28;20039;-75
2022/01/01 02:48:44;;;;;;;;;;;;;;;5.17;97.65;97554.19;5060923;28;19964;-75
2022/01/01 02:51:10;;;;;;;;;;;;;;;5.19;97.48;97563.44;5068568;28;19986;-75
2022/01/01 02:53:36;;;;;;;;;;;;;;;5.19;97.00;97563.44;5034121;28;20051;-75
2022/01/01 02:56:02;;;;;;;;;;;;;;;5.18;96.41;97566.19;5050593;28;19977;-75
2022/01/01 02:58:27;;;;;;;;;;;;;;;5.16;96.03;97568.13;5066600;28;19964;-75
2022/01/01 03:00:53;;;;;;;;;;;;;;;5.14;96.13;97564.88;5074623;28;20000;-76
2022/01/01 03:03:19;;;;;;;;;;;;;;;5.13;96.25;97555.44;5057048;28;19970;-75
2022/01/01 03:05:45;;;;;;;;;;;;;;;5.14;96.31;97562.28;5061457;28;20031;-75
2022/01/01 03:08:11;;;;;;;;;;;;;;;5.14;96.63;97554.47;5071518;28;20416;-75
2022/01/01 03:10:37;;;;;;;;;;;;;;;5.15;96.99;97553.50;5042351;28;19964;-75
2022/01/01 03:13:03;;;;;;;;;;;;;;;5.16;96.84;97555.13;5063474;28;19961;-75
2022/01/01 03:15:29;;;;;;;;;;;;;;;5.15;97.14;97554.31;5050221;28;20429;-75
2022/01/01 03:17:56;;;;;;;;;;;;;;;5.16;97.48;97561.13;5064689;28;20010;-74
2022/01/01 03:20:22;;;;;;;;;;;;;;;5.16;97.42;97555.13;5066797;28;19959;-75
2022/01/01 03:22:48;;;;;;;;;;;;;;;5.18;97.45;97554.00;5066065;28;19967;-75
2022/01/01 03:25:14;;;;;;;;;;;;;;;5.19;97.60;97554.84;5063391;28;19963;-75
2022/01/01 03:27:40;;;;;;;;;;;;;;;5.21;97.72;97558.09;5053855;28;20434;-74
2022/01/01 03:30:06;;;;;;;;;;;;;;;5.21;97.59;97558.91;5074784;28;19958;-74
2022/01/01 03:32:32;;;;;;;;;;;;;;;5.22;97.31;97559.72;5062044;28;19956;-75
2022/01/01 03:34:57;;;;;;;;;;;;;;;5.22;96.76;97560.53;5049926;28;19969;-74
2022/01/01 03:37:23;;;;;;;;;;;;;;;5.23;96.65;97556.97;5036555;28;20008;-74
2022/01/01 03:39:50;;;;;;;;;;;;;;;5.22;96.60;97551.91;5059499;28;19965;-75
2022/01/01 03:42:16;;;;;;;;;;;;;;;5.22;96.85;97544.09;5058585;28;19954;-75
2022/01/01 03:44:42;;;;;;;;;;;;;;;5.23;97.13;97553.56;5055995;28;20048;-75
2022/01/01 03:47:10;;;;;;;;;;;;;;;5.22;97.17;97557.91;5060398;28;20410;-74
2022/01/01 03:49:36;;;;;;;;;;;;;;;5.24;97.16;97552.56;5058211;28;19993;-75
2022/01/01 03:52:03;;;;;;;;;;;;;;;5.23;96.97;97556.16;5064510;28;19975;-75
2022/01/01 03:54:29;;;;;;;;;;;;;;;5.24;96.94;97555.16;5054164;28;19963;-74
2022/01/01 03:56:54;;;;;;;;;;;;;;;5.25;97.05;97554.22;5049116;28;19974;-75
2022/01/01 03:59:20;;;;;;;;;;;;;;;5.27;97.25;97554.84;5057263;28;19958;-76
2022/01/01 04:01:46;;;;;;;;;;;;;;;5.28;97.58;97544.28;5062359;28;19963;-75
2022/01/01 04:04:12;;;;;;;;;;;;;;;5.31;97.79;97543.16;5046558;28;19963;-75
2022/01/01 04:06:38;;;;;;;;;;;;;;;5.34;97.86;97544.66;5052863;28;19964;-74
2022/01/01 04:09:04;;;;;;;;;;;;;;;5.35;98.19;97552.28;5055789;28;19957;-75
2022/01/01 04:11:30;;;;;;;;;;;;;;;5.36;97.92;97537.50;5043953;28;19964;-75
2022/01/01 04:13:56;;;;;;;;;;;;;;;5.37;97.79;97539.94;5057637;28;20047;-75
2022/01/01 04:16:23;;;;;;;;;;;;;;;5.38;97.46;97527.75;5030596;28;20414;-75
2022/01/01 04:18:49;;;;;;;;;;;;;;;5.38;97.38;97538.16;5053254;28;19970;-75
2022/01/01 04:21:15;;;;;;;;;;;;;;;5.37;97.18;97537.31;5054069;28;20297;-75
2022/01/01 04:23:41;;;;;;;;;;;;;;;5.37;97.15;97546.91;5065175;28;19993;-75
2022/01/01 04:26:08;;;;;;;;;;;;;;;5.37;97.08;97550.31;5028555;28;20430;-75
2022/01/01 04:28:34;;;;;;;;;;;;;;;5.36;96.87;97551.31;5058644;28;19958;-74
2022/01/01 04:31:00;;;;;;;;;;;;;;;5.35;96.57;97549.66;5063556;28;19956;-75
2022/01/01 04:33:26;;;;;;;;;;;;;;;5.34;96.19;97539.44;5056019;28;20007;-74
2022/01/01 04:35:52;;;;;;;;;;;;;;;5.32;95.83;97546.59;5044881;28;20058;-74
2022/01/01 04:38:37;;;;;;;;;;;;;;;5.28;95.29;97546.88;5058088;28;19980;-74
2022/01/01 04:41:04;;;;;;;;;;;;;;;5.24;94.94;97548.16;5059999;28;19952;-74
2022/01/01 04:43:30;;;;;;;;;;;;;;;5.21;94.82;97547.69;5048700;28;19961;-74
2022/01/01 04:45:56;;;;;;;;;;;;;;;5.18;94.74;97548.00;5063681;28;20434;-74
2022/01/01 04:48:22;;;;;;;;;;;;;;;5.15;94.70;97548.31;5050304;28;19964;-74
2022/01/01 04:50:48;;;;;;;;;;;;;;;5.12;94.48;97544.22;5043272;28;20006;-74
2022/01/01 04:53:17;;;;;;;;;;;;;;;5.10;94.19;97543.56;5022799;28;19961;-76
2022/01/01 04:55:43;;;;;;;;;;;;;;;5.07;94.15;97539.50;5035495;28;19959;-76
2022/01/01 04:58:09;;;;;;;;;;;;;;;5.04;94.25;97539.81;5049058;28;19966;-74
2022/01/01 05:00:35;;;;;;;;;;;;;;;5.00;94.04;97533.28;5057102;28;20018;-74
2022/01/01 05:03:01;;;;;;;;;;;;;;;4.99;94.02;97539.44;5051400;28;19951;-76
2022/01/01 05:05:27;;;;;;;;;;;;;;;4.97;93.91;97535.38;5055563;28;19960;-75
2022/01/01 05:07:53;;;;;;;;;;;;;;;4.94;93.78;97543.50;5066384;28;19946;-75
2022/01/01 05:10:19;;;;;;;;;;;;;;;4.92;93.52;97538.44;5048751;28;20329;-74
2022/01/01 05:12:45;;;;;;;;;;;;;;;4.88;93.55;97540.53;5057901;28;19960;-75
2022/01/01 05:15:11;;;;;;;;;;;;;;;4.87;93.56;97538.94;5052693;28;20006;-74
2022/01/01 05:17:37;;;;;;;;;;;;;;;4.86;93.51;97536.47;5055458;28;19968;-75
2022/01/01 05:20:04;;;;;;;;;;;;;;;4.83;93.51;97537.59;5054035;28;19950;-75
2022/01/01 05:22:29;;;;;;;;;;;;;;;4.81;93.41;97539.53;5064851;28;19965;-75
2022/01/01 05:24:59;;;;;;;;;;;;;;;4.79;93.33;97546.69;5051441;28;19949;-75
2022/01/01 05:27:26;;;;;;;;;;;;;;;4.76;93.22;97533.97;5054066;28;19957;-75
2022/01/01 05:29:52;;;;;;;;;;;;;;;4.74;92.99;97535.91;5062073;28;19959;-74
2022/01/01 05:32:18;;;;;;;;;;;;;;;4.71;93.13;97532.81;5060487;28;19974;-74
2022/01/01 05:34:44;;;;;;;;;;;;;;;4.67;93.08;97538.31;5053088;28;19963;-74
2022/01/01 05:37:10;;;;;;;;;;;;;;;4.64;92.94;97532.59;5040894;28;19973;-76
2022/01/01 05:39:36;;;;;;;;;;;;;;;4.61;93.11;97531.13;5051844;28;20340;-75
2022/01/01 05:42:02;;;;;;;;;;;;;;;4.59;92.70;97533.06;5049832;28;20003;-75
2022/01/01 05:44:28;;;;;;;;;;;;;;;4.55;92.27;97542.13;5039362;28;19959;-74
2022/01/01 05:46:54;;;;;;;;;;;;;;;4.49;92.02;97537.53;5056278;28;20375;-74
2022/01/01 05:49:20;;;;;;;;;;;;;;;4.43;91.88;97536.38;5043043;28;19983;-75
2022/01/01 05:51:46;;;;;;;;;;;;;;;4.39;92.13;97542.84;5050883;28;19967;-76
2022/01/01 05:54:12;;;;;;;;;;;;;;;4.38;92.27;97537.81;5059555;28;19969;-74
2022/01/01 05:56:38;;;;;;;;;;;;;;;4.35;92.22;97544.13;5062154;28;19969;-74
2022/01/01 05:59:04;;;;;;;;;;;;;;;4.32;92.29;97541.00;5028457;28;20379;-74
2022/01/01 06:01:29;;;;;;;;;;;;;;;4.27;92.10;97547.47;5066112;28;20001;-74
2022/01/01 06:03:55;;;;;;;;;;;;;;;4.26;92.45;97555.38;5059043;28;19997;-75
2022/01/01 06:06:21;;;;;;;;;;;;;;;4.23;92.57;97553.91;5064738;28;20437;-74
2022/01/01 06:08:47;;;;;;;;;;;;;;;4.22;92.86;97562.69;5046297;28;19962;-75
2022/01/01 06:11:13;;;;;;;;;;;;;;;4.21;92.94;97566.22;5036237;28;19958;-74
2022/01/01 06:13:39;;;;;;;;;;;;;;;4.20;93.60;97566.38;5064183;28;20308;-74
2022/01/01 06:16:05;;;;;;;;;;;;;;;4.20;93.86;97574.16;5060801;28;19970;-73
2022/01/01 06:18:31;;;;;;;;;;;;;;;4.19;93.31;97577.75;5053752;28;20407;-75
2022/01/01 06:20:57;;;;;;;;;;;;;;;4.14;92.89;97580.78;5056531;28;19957;-75
2022/01/01 06:23:23;;;;;;;;;;;;;;;4.12;92.75;97590.50;5056206;28;19982;-74
2022/01/01 06:25:49;;;;;;;;;;;;;;;4.10;92.58;97586.44;5051832;28;20331;-74
2022/01/01 06:28:15;;;;;;;;;;;;;;;4.05;92.10;97576.47;5046904;28;19968;-74
2022/01/01 06:30:41;;;;;;;;;;;;;;;4.01;92.30;97582.91;5054043;28;19970;-74
2022/01/01 06:33:11;;;;;;;;;;;;;;;4.00;92.47;97586.50;5062621;28;19951;-73
2022/01/01 06:35:40;;;;;;;;;;;;;;;3.98;92.47;97593.63;5067133;28;20410;-74
2022/01/01 06:38:06;;;;;;;;;;;;;;;3.98;92.86;97591.00;5045463;28;19961;-73
2022/01/01 06:40:32;;;;;;;;;;;;;;;3.98;93.23;97593.63;5060956;28;20133;-73
2022/01/01 06:42:58;;;;;;;;;;;;;;;4.01;93.89;97598.50;5032880;28;20318;-74
2022/01/01 06:45:24;;;;;;;;;;;;;;;4.04;94.07;97599.03;5032741;28;19994;-74
2022/01/01 06:47:50;;;;;;;;;;;;;;;4.06;94.04;97596.28;5065841;28;19966;-74
2022/01/01 06:50:15;;;;;;;;;;;;;;;4.04;93.67;97601.63;5061414;28;20486;-74
2022/01/01 06:52:45;;;;;;;;;;;;;;;4.03;94.06;97596.56;5072487;28;19994;-74
2022/01/01 06:55:12;;;;;;;;;;;;;;;4.05;95.11;97594.63;5053115;28;19975;-73
2022/01/01 06:57:39;;;;;;;;;;;;;;;4.09;95.15;97597.75;5030545;28;19976;-75
2022/01/01 07:00:05;;;;;;;;;;;;;;;4.09;95.15;97592.56;5069375;28;19949;-73
2022/01/01 07:02:31;;;;;;;;;;;;;;;4.09;95.18;97579.59;5039527;28;19962;-74
2022/01/01 07:04:57;;;;;;;;;;;;;;;4.10;95.11;97570.84;5042140;28;19958;-73
2022/01/01 07:07:23;;;;;;;;;;;;;;;4.12;95.16;97585.31;5044854;28;19958;-73
2022/01/01 07:09:49;;;;;;;;;;;;;;;4.13;95.13;97579.16;5057712;28;19960;-74
2022/01/01 07:12:14;;;;;;;;;;;;;;;4.12;94.79;97574.94;5047137;28;19954;-73
2022/01/01 07:14:40;;;;;;;;;;;;;;;4.12;94.53;97574.13;5033531;28;19964;-74
2022/01/01 07:17:06;;;;;;;;;;;;;;;4.12;94.49;97577.53;5055626;28;20440;-74
2022/01/01 07:19:32;;;;;;;;;;;;;;;4.11;94.60;97567.28;5064393;28;20004;-73
2022/01/01 07:22:00;;;;;;;;;;;;;;;4.12;95.94;97567.13;5055472;28;20009;-74
2022/01/01 07:24:26;;;;;;;;;;;;;;;4.13;96.03;97566.16;5059834;28;19982;-74
2022/01/01 07:26:52;;;;;;;;;;;;;;;4.15;96.26;97571.22;5058752;28;20438;-74
2022/01/01 07:29:18;;;;;;;;;;;;;;;4.13;96.17;97568.75;5028416;28;19986;-73
2022/01/01 07:31:44;;;;;;;;;;;;;;;4.12;95.92;97559.34;5032058;28;19968;-74
2022/01/01 07:34:09;;;;;;;;;;;;;;;4.10;95.86;97569.06;5059534;28;19969;-74
2022/01/01 07:36:35;;;;;;;;;;;;;;;4.11;95.49;97572.47;5045159;28;19959;-74
2022/01/01 07:39:02;;;;;;;;;;;;;;;4.11;95.42;97575.06;5041237;28;19975;-74
2022/01/01 07:41:28;;;;;;;;;;;;;;;4.12;95.38;97577.53;5058918;28;19979;-74
2022/01/01 07:43:54;;;;;;;;;;;;;;;4.14;95.20;97590.38;5056462;28;19963;-73
2022/01/01 07:46:20;;;;;;;;;;;;;;;4.13;94.73;97596.50;5042047;28;19969;-74
2022/01/01 07:48:46;;;;;;;;;;;;;;;4.12;94.28;97595.69;5057194;28;19963;-74
2022/01/01 07:51:12;;;;;;;;;;;;;;;4.13;94.14;97601.69;5055330;28;20341;-73
2022/01/01 07:53:38;;;;;;;;;;;;;;;4.13;93.67;97601.69;5049786;28;19958;-74
2022/01/01 07:56:04;;;;;;;;;;;;;;;4.14;93.66;97595.56;5055170;28;20003;-74
2022/01/01 07:58:31;;;;;;;;;;;;;;;4.17;93.59;97598.66;5048527;28;19987;-74
2022/01/01 08:00:57;;;;;;;;;;;;;;;4.25;93.84;97592.72;5052502;28;20336;-74
2022/01/01 08:03:23;;;;;;;;;;;;;;;4.40;93.65;97582.63;5056863;28;19960;-74
2022/01/01 08:05:49;;;;;;;;;;;;;;;4.60;93.13;97583.22;5030190;28;19956;-75
2022/01/01 08:08:15;;;;;;;;;;;;;;;4.84;91.84;97575.59;5046101;28;20044;-74
2022/01/01 08:10:41;;;;;;;;;;;;;;;5.09;90.89;97567.94;5066117;28;19988;-74
2022/01/01 08:13:08;;;;;;;;;;;;;;;5.32;90.36;97573.41;5062403;28;19954;-75
2022/01/01 08:15:34;;;;;;;;;;;;;;;5.55;89.31;97568.44;5053582;28;19957;-74
2022/01/01 08:18:00;;;;;;;;;;;;;;;5.74;88.67;97559.56;5038254;28;19981;-75
2022/01/01 08:20:26;;;;;;;;;;;;;;;5.94;87.84;97554.03;5040510;28;20000;-74
2022/01/01 08:22:52;;;;;;;;;;;;;;;6.12;87.22;97553.94;5058765;28;20043;-74
2022/01/01 08:25:20;;;;;;;;;;;;;;;6.30;86.17;97554.59;5058503;28;20369;-74
2022/01/01 08:27:46;;;;;;;;;;;;;;;6.45;85.61;97554.75;5066209;28;19957;-74
2022/01/01 08:30:14;;;;;;;;;;;;;;;6.58;85.21;97567.28;5061508;28;20425;-75
2022/01/01 08:32:40;;;;;;;;;;;;;;;6.65;84.48;97556.00;5064374;28;19962;-75
2022/01/01 08:35:07;;;;;;;;;;;;;;;6.75;84.15;97571.47;5055578;28;20410;-75
2022/01/01 08:37:32;;;;;;;;;;;;;;;6.83;84.09;97576.69;5043934;28;19966;-74
2022/01/01 08:39:58;;;;;;;;;;;;;;;6.95;83.93;97578.94;5050817;28;20057;-74
2022/01/01 08:42:24;;;;;;;;;;;;;;;7.03;83.53;97586.75;5050674;28;19966;-75
2022/01/01 08:44:51;;;;;;;;;;;;;;;7.12;83.58;97580.53;5056346;28;19998;-75
2022/01/01 08:47:24;;;;;;;;;;;;;;;7.20;82.32;97584.91;5055766;28;19977;-75
2022/01/01 08:49:52;;;;;;;;;;;;;;;7.24;82.81;97588.81;5066505;28;19987;-75
2022/01/01 08:52:18;;;;;;;;;;;;;;;7.29;82.61;97579.50;5040562;28;19958;-75
2022/01/01 08:54:43;;;;;;;;;;;;;;;7.29;79.83;97574.28;5065965;28;19966;-75
2022/01/01 08:57:09;;;;;;;;;;;;;;;7.30;82.55;97578.50;5057596;28;20011;-74
2022/01/01 08:59:35;;;;;;;;;;;;;;;7.39;83.10;97589.75;5025889;28;19963;-74
2022/01/01 09:02:01;;;;;;;;;;;;;;;7.50;82.87;97588.56;5053436;28;19960;-75
2022/01/01 09:04:27;;;;;;;;;;;;;;;7.66;83.43;97585.03;5053921;28;19959;-74
2022/01/01 09:06:53;;;;;;;;;;;;;;;7.82;83.44;97584.94;5044640;28;19960;-75
2022/01/01 09:09:19;;;;;;;;;;;;;;;8.01;82.42;97582.88;5060705;28;19987;-74
2022/01/01 09:11:45;;;;;;;;;;;;;;;8.18;82.23;97589.63;5051772;28;20413;-77
2022/01/01 09:14:12;;;;;;;;;;;;;;;8.34;82.42;97586.91;5041779;28;19957;-75
2022/01/01 09:16:38;;;;;;;;;;;;;;;8.44;77.77;97572.78;5057109;28;19961;-74
2022/01/01 09:19:05;;;;;;;;;;;;;;;8.43;79.36;97587.66;5047787;28;20477;-77
2022/01/01 09:21:31;;;;;;;;;;;;;;;8.51;80.09;97581.56;5051715;28;20323;-75
2022/01/01 09:23:57;;;;;;;;;;;;;;;8.61;78.94;97576.91;5049015;28;19954;-74
2022/01/01 09:26:23;;;;;;;;;;;;;;;8.63;78.07;97584.56;5053354;28;19972;-75
2022/01/01 09:28:49;;;;;;;;;;;;;;;8.78;80.45;97580.19;5046945;28;19967;-75
2022/01/01 09:31:16;;;;;;;;;;;;;;;8.92;78.01;97583.78;5059056;28;20344;-74
2022/01/01 09:33:42;;;;;;;;;;;;;;;9.08;79.70;97593.28;5053538;28;19961;-74
2022/01/01 09:36:09;;;;;;;;;;;;;;;9.27;79.71;97597.97;5060714;28;20462;-74
2022/01/01 09:38:36;;;;;;;;;;;;;;;9.46;76.07;97593.19;5040289;28;19967;-74
2022/01/01 09:41:02;;;;;;;;;;;;;;;9.59;78.32;97608.25;5054353;28;19956;-75
2022/01/01 09:43:29;;;;;;;;;;;;;;;9.64;77.28;97603.25;5050132;28;19960;-74
2022/01/01 09:45:55;;;;;;;;;;;;;;;9.74;77.20;97596.78;5044655;28;19964;-75
2022/01/01 09:48:22;;;;;;;;;;;;;;;9.86;80.15;97602.31;5039034;28;19988;-77
2022/01/01 09:50:49;;;;;;;;;;;;;;;10.25;84.65;97592.47;5050886;28;19978;-75
2022/01/01 09:53:17;;;;;;;;;;;;;;;10.61;76.02;97583.72;5061623;28;19962;-74
2022/01/01 09:55:43;;;;;;;;;;;;;;;10.68;75.07;97580.13;5049975;28;19970;-75
2022/01/01 09:58:09;;;;;;;;;;;;;;;10.72;76.00;97594.50;5065044;28;19985;-74
2022/01/01 10:00:35;;;;;;;;;;;;;;;10.74;75.34;97591.69;5071253;28;19965;-75
2022/01/01 10:03:01;;;;;;;;;;;;;;;10.60;73.63;97585.50;5042268;28;19966;-75
2022/01/01 10:05:27;;;;;;;;;;;;;;;10.49;73.34;97578.16;5051507;28;19964;-74
2022/01/01 10:07:53;;;;;;;;;;;;;;;10.49;74.54;97583.41;5064850;28;20006;-74
2022/01/01 10:10:23;;;;;;;;;;;;;;;10.55;76.56;97595.78;5045795;28;19970;-75
2022/01/01 10:12:49;;;;;;;;;;;;;;;10.60;76.25;97601.25;5053208;28;19959;-74
2022/01/01 10:15:16;;;;;;;;;;;;;;;10.56;73.60;97573.78;5042430;28;19953;-74
2022/01/01 10:17:42;;;;;;;;;;;;;;;10.57;73.02;97578.03;5045636;28;19978;-76
2022/01/01 10:20:09;;;;;;;;;;;;;;;10.59;74.07;97586.53;5046749;28;19964;-75
2022/01/01 10:22:37;;;;;;;;;;;;;;;10.64;73.56;97583.31;5056658;28;19966;-77
2022/01/01 10:27:54;;;;;;;;;;;;;;;10.63;75.05;97595.63;5043533;28;20316;-75
2022/01/01 10:30:21;;;;;;;;;;;;;;;10.74;74.48;97581.19;5045778;28;19964;-74
2022/01/01 10:33:00;;;;;;;;;;;;;;;10.84;73.90;97575.63;5037780;28;20335;-74
2022/01/01 10:35:27;;;;;;;;;;;;;;;10.84;72.60;97575.63;5033588;28;20011;-74
2022/01/01 10:37:53;;;;;;;;;;;;;;;10.76;73.15;97572.13;5060705;28;19978;-73
2022/01/01 10:40:26;;;;;;;;;;;;;;;10.75;73.92;97578.38;5054764;28;19961;-74
2022/01/01 10:42:52;;;;;;;;;;;;;;;10.71;74.25;97571.09;5046236;28;19965;-74
2022/01/01 10:45:54;;;;;;;;;;;;;;;10.66;72.57;97555.09;5032898;28;19960;-74
2022/01/01 10:50:50;;;;;;;;;;;;;;;10.75;74.08;97554.78;5048871;28;19988;-74
2022/01/01 10:53:20;;;;;;;;;;;;;;;10.85;72.67;97537.84;5058484;28;19959;-74
2022/01/01 10:55:49;;;;;;;;;;;;;;;10.90;72.61;97538.09;5059856;28;19998;-74
2022/01/01 10:58:19;;;;;;;;;;;;;;;11.00;73.69;97549.03;5055769;28;19982;-74
2022/01/01 11:00:45;;;;;;;;;;;;;;;11.13;73.09;97527.34;5059291;28;19968;-74
2022/01/01 11:03:15;;;;;;;;;;;;;;;11.18;69.86;97515.22;5056202;28;20322;-73
2022/01/01 11:05:41;;;;;;;;;;;;;;;11.09;71.87;97537.41;5053097;28;19956;-74
2022/01/01 11:08:07;;;;;;;;;;;;;;;11.09;73.09;97544.47;5057503;28;19961;-73
2022/01/01 11:10:34;;;;;;;;;;;;;;;11.15;74.06;97551.59;5058861;28;19964;-74
2022/01/01 11:13:00;;;;;;;;;;;;;;;11.07;72.50;97539.41;5054644;28;20026;-73
2022/01/01 11:15:27;;;;;;;;;;;;;;;10.96;72.86;97532.91;5057599;28;19977;-74
2022/01/01 11:17:54;;;;;;;;;;;;;;;10.91;71.18;97514.28;5064890;28;19982;-74
2022/01/01 11:20:20;;;;;;;;;;;;;;;10.84;72.27;97529.19;5044509;28;19999;-74
2022/01/01 11:22:47;;;;;;;;;;;;;;;10.80;74.95;97542.88;5055041;28;19960;-74
2022/01/01 11:25:12;;;;;;;;;;;;;;;10.87;74.74;97533.22;5043524;28;19971;-74
2022/01/01 11:27:38;;;;;;;;;;;;;;;10.89;74.02;97516.28;5059641;28;20044;-74
2022/01/01 11:30:06;;;;;;;;;;;;;;;10.98;74.35;97524.81;5049798;28;19964;-74
2022/01/01 11:32:44;;;;;;;;;;;;;;;11.02;71.98;97499.00;5063795;28;19967;-75
2022/01/01 11:35:11;;;;;;;;;;;;;;;11.12;73.41;97502.88;5036457;28;20028;-74
2022/01/01 11:38:03;;;;;;;;;;;;;;;11.15;71.69;97494.63;5067507;28;19955;-74
2022/01/01 11:40:40;;;;;;;;;;;;;;;11.06;71.79;97493.16;5056111;28;19964;-74
2022/01/01 11:43:06;;;;;;;;;;;;;;;10.99;71.98;97491.53;5046809;28;19959;-74
2022/01/01 11:45:45;;;;;;;;;;;;;;;10.90;72.64;97494.31;5056722;28;20021;-74
2022/01/01 11:48:28;;;;;;;;;;;;;;;10.94;72.72;97494.69;5052024;28;19971;-74
2022/01/01 11:50:54;;;;;;;;;;;;;;;10.92;72.49;97486.25;5044342;28;19989;-74
2022/01/01 11:53:27;;;;;;;;;;;;;;;10.85;73.28;97503.75;5053357;28;19972;-74
2022/01/01 11:56:12;;;;;;;;;;;;;;;10.86;73.58;97494.88;5057718;28;19965;-79
2022/01/01 11:58:47;;;;;;;;;;;;;;;10.88;74.77;97488.44;5066866;28;19973;-74
2022/01/01 12:01:17;;;;;;;;;;;;;;;10.82;74.04;97488.41;5055125;28;19959;-74
2022/01/01 12:03:50;;;;;;;;;;;;;;;10.73;72.45;97470.19;5049185;28;19975;-74
2022/01/01 12:06:16;;;;;;;;;;;;;;;10.73;75.05;97488.56;5053027;28;19968;-74
2022/01/01 12:08:44;;;;;;;;;;;;;;;10.71;73.97;97474.00;5052511;28;20327;-73
2022/01/01 12:11:27;;;;;;;;;;;;;;;10.67;74.83;97463.09;5046720;28;19963;-74
2022/01/01 12:14:01;;;;;;;;;;;;;;;10.60;75.73;97461.41;5049193;28;19965;-74
2022/01/01 12:16:27;;;;;;;;;;;;;;;10.57;74.88;97450.31;5061662;28;20326;-74
2022/01/01 12:19:01;;;;;;;;;;;;;;;10.58;75.37;97445.88;5060757;28;19976;-74
2022/01/01 12:21:27;;;;;;;;;;;;;;;10.56;76.00;97451.31;5056181;28;19973;-74
2022/01/01 12:23:57;;;;;;;;;;;;;;;10.62;76.19;97448.91;5028684;28;21569;-74
2022/01/01 12:26:30;;;;;;;;;;;;;;;10.71;76.57;97448.59;5048855;28;19966;-74
2022/01/01 12:29:06;;;;;;;;;;;;;;;10.82;75.96;97444.59;5067768;28;19960;-74
2022/01/01 12:31:32;;;;;;;;;;;;;;;10.86;74.66;97432.72;5059600;28;19970;-74
2022/01/01 12:34:08;;;;;;;;;;;;;;;10.88;75.61;97435.16;5055633;28;19976;-75
2022/01/01 12:36:34;;;;;;;;;;;;;;;10.92;75.07;97429.31;5039605;28;19970;-74
2022/01/01 12:39:04;;;;;;;;;;;;;;;10.93;75.55;97427.47;5062261;28;19984;-74
2022/01/01 12:41:30;;;;;;;;;;;;;;;10.92;74.15;97416.19;5052968;28;19979;-74
2022/01/01 12:44:01;;;;;;;;;;;;;;;10.91;74.50;97425.03;5061222;28;19991;-75
2022/01/01 12:46:28;;;;;;;;;;;;;;;10.88;75.70;97435.94;5056451;28;19967;-75
2022/01/01 12:48:57;;;;;;;;;;;;;;;10.90;74.64;97426.06;5053525;28;19984;-74
2022/01/01 12:51:24;;;;;;;;;;;;;;;10.86;73.91;97419.59;5062790;28;19984;-74
2022/01/01 12:53:58;;;;;;;;;;;;;;;10.82;74.88;97415.72;5052847;28;19963;-74
2022/01/01 12:56:24;;;;;;;;;;;;;;;10.78;74.33;97406.63;5055807;28;19958;-74
2022/01/01 12:58:51;;;;;;;;;;;;;;;10.78;75.91;97419.75;5025415;28;20371;-75
2022/01/01 13:01:19;;;;;;;;;;;;;;;10.75;75.45;97409.63;5039083;28;20307;-75